Time,TemperatureF,DewpointF,PressureIn,WindDirection,WindDirectionDegrees,WindSpeedMPH,WindSpeedGustMPH,Humidity,HourlyPrecipIn,Conditions,Clouds,dailyrainin,SolarRadiationWatts/m^2,SoftwareType,DateUTC
2015-07-06 00:11:00,75.8,69.0,30.19,NW,321,3.0,12.0,80,0.03,,,0.03,0,weatherlink.com 1.10,2015-07-06 04:11:00,
2015-07-06 00:26:00,73.9,68.0,30.20,NNW,329,4.0,10.0,82,0.04,,,0.04,0,weatherlink.com 1.10,2015-07-06 04:26:00,
2015-07-06 00:41:00,73.3,68.0,30.19,NNW,340,2.0,9.0,82,0.05,,,0.05,0,weatherlink.com 1.10,2015-07-06 04:41:00,
2015-07-06 00:56:00,73.3,68.0,30.18,NNW,329,1.0,6.0,82,0.05,,,0.05,0,weatherlink.com 1.10,2015-07-06 04:56:00,
2015-07-06 01:11:00,73.2,67.0,30.17,NW,322,1.0,6.0,82,0.02,,,0.05,0,weatherlink.com 1.10,2015-07-06 05:11:00,
2015-07-06 01:26:00,73.2,67.0,30.17,NW,320,1.0,5.0,82,0.01,,,0.05,0,weatherlink.com 1.10,2015-07-06 05:26:00,
2015-07-06 01:41:00,73.5,68.0,30.17,NW,319,0.0,2.0,82,0.00,,,0.00,0,weatherlink.com 1.10,2015-07-06 05:41:00,
2015-07-06 01:56:00,73.5,68.0,30.16,NW,319,0.0,1.0,82,0.00,,,0.00,0,weatherlink.com 1.10,2015-07-06 05:56:00,
2015-07-06 02:11:00,73.5,68.0,30.15,NW,319,0.0,0.0,82,0.00,,,0.00,0,weatherlink.com 1.10,2015-07-06 06:11:00,
2015-07-06 02:26:00,73.2,67.0,30.14,NW,319,0.0,1.0,82,0.00,,,0.00,0,weatherlink.com 1.10,2015-07-06 06:26:00,
2015-07-06 02:41:00,73.3,68.0,30.13,NW,319,0.0,1.0,82,0.00,,,0.00,0,weatherlink.com 1.10,2015-07-06 06:41:00,
2015-07-06 02:56:00,73.1,67.0,30.13,NW,319,0.0,0.0,82,0.00,,,0.00,0,weatherlink.com 1.10,2015-07-06 06:56:00,
2015-07-06 03:11:00,73.2,67.0,30.13,NW,319,0.0,1.0,82,0.00,,,0.00,0,weatherlink.com 1.10,2015-07-06 07:11:00,
2015-07-06 03:26:00,73.1,67.0,30.12,NW,319,0.0,1.0,82,0.00,,,0.00,0,weatherlink.com 1.10,2015-07-06 07:26:00,
2015-07-06 03:41:00,73.2,68.0,30.12,NW,319,0.0,1.0,83,0.00,,,0.00,0,weatherlink.com 1.10,2015-07-06 07:41:00,
2015-07-06 03:57:00,73.0,68.0,30.12,NW,319,0.0,1.0,83,0.00,,,0.00,0,weatherlink.com 1.10,2015-07-06 07:57:00,
2015-07-06 04:12:00,73.0,68.0,30.11,NW,319,0.0,1.0,83,0.00,,,0.00,0,weatherlink.com 1.10,2015-07-06 08:12:00,
2015-07-06 04:27:00,72.9,68.0,30.11,NW,321,2.0,2.0,83,0.00,,,0.00,0,weatherlink.com 1.10,2015-07-06 08:27:00,
2015-07-06 04:42:00,73.1,68.0,30.10,NW,321,0.0,2.0,83,0.00,,,0.00,0,weatherlink.com 1.10,2015-07-06 08:42:00,
2015-07-06 04:57:00,73.9,69.0,30.09,ESE,104,1.0,3.0,83,0.00,,,0.00,0,weatherlink.com 1.10,2015-07-06 08:57:00,
2015-07-06 05:12:00,75.3,70.0,30.08,ESE,105,3.0,4.0,82,0.00,,,0.00,0,weatherlink.com 1.10,2015-07-06 09:12:00,
2015-07-06 05:27:00,76.6,70.0,30.08,ESE,102,0.0,4.0,81,0.00,,,0.00,0,weatherlink.com 1.10,2015-07-06 09:27:00,
2015-07-06 05:42:00,77.8,71.0,30.07,ESE,112,2.0,6.0,80,0.00,,,0.00,0,weatherlink.com 1.10,2015-07-06 09:42:00,
2015-07-06 05:57:00,79.1,72.0,30.07,East,87,3.0,9.0,79,0.00,,,0.00,0,weatherlink.com 1.10,2015-07-06 09:57:00,
2015-07-06 06:12:00,80.0,73.0,30.07,ESE,105,4.0,10.0,78,0.00,,,0.00,0,weatherlink.com 1.10,2015-07-06 10:12:00,
2015-07-06 06:27:00,80.3,73.0,30.07,ESE,110,1.0,10.0,78,0.00,,,0.00,0,weatherlink.com 1.10,2015-07-06 10:27:00,
2015-07-06 06:42:00,80.4,73.0,30.09,ESE,105,3.0,6.0,79,0.00,,,0.00,11,weatherlink.com 1.10,2015-07-06 10:42:00,
2015-07-06 06:57:00,80.3,74.0,30.09,SSE,157,0.0,5.0,80,0.00,,,0.00,28,weatherlink.com 1.10,2015-07-06 10:57:00,
2015-07-06 07:12:00,80.4,74.0,30.10,SSE,154,1.0,3.0,80,0.00,,,0.00,44,weatherlink.com 1.10,2015-07-06 11:12:00,
2015-07-06 07:27:00,80.4,74.0,30.12,SSE,156,0.0,1.0,80,0.00,,,0.00,70,weatherlink.com 1.10,2015-07-06 11:27:00,
2015-07-06 07:42:00,80.9,74.0,30.13,SSE,156,0.0,1.0,80,0.00,,,0.00,98,weatherlink.com 1.10,2015-07-06 11:42:00,
2015-07-06 07:57:00,80.9,74.0,30.13,SSE,156,0.0,2.0,80,0.00,,,0.00,104,weatherlink.com 1.10,2015-07-06 11:57:00,
2015-07-06 08:12:00,80.1,73.0,30.14,SSE,157,0.0,3.0,80,0.00,,,0.00,121,weatherlink.com 1.10,2015-07-06 12:12:00,
2015-07-06 08:28:00,79.3,73.0,30.14,NW,305,0.0,4.0,80,0.00,,,0.00,137,weatherlink.com 1.10,2015-07-06 12:28:00,
2015-07-06 08:42:00,79.4,73.0,30.15,NW,305,2.0,3.0,80,0.00,,,0.00,163,weatherlink.com 1.10,2015-07-06 12:42:00,
2015-07-06 08:57:00,79.4,73.0,30.15,NW,306,2.0,4.0,80,0.00,,,0.00,185,weatherlink.com 1.10,2015-07-06 12:57:00,
2015-07-06 09:13:00,80.1,73.0,30.16,NW,306,0.0,3.0,80,0.00,,,0.00,227,weatherlink.com 1.10,2015-07-06 13:13:00,
2015-07-06 09:28:00,81.4,74.0,30.16,NW,306,1.0,2.0,79,0.00,,,0.00,288,weatherlink.com 1.10,2015-07-06 13:28:00,
2015-07-06 09:43:00,83.0,76.0,30.16,NW,306,1.0,3.0,78,0.00,,,0.00,371,weatherlink.com 1.10,2015-07-06 13:43:00,
2015-07-06 09:58:00,84.4,76.0,30.17,NW,306,0.0,2.0,76,0.00,,,0.00,383,weatherlink.com 1.10,2015-07-06 13:58:00,
2015-07-06 10:13:00,84.9,77.0,30.16,NW,306,0.0,0.0,76,0.00,,,0.00,388,weatherlink.com 1.10,2015-07-06 14:13:00,
2015-07-06 10:28:00,85.3,77.0,30.16,NW,306,0.0,0.0,75,0.00,,,0.00,334,weatherlink.com 1.10,2015-07-06 14:28:00,
2015-07-06 10:43:00,84.7,76.0,30.16,NW,313,1.0,3.0,76,0.00,,,0.00,306,weatherlink.com 1.10,2015-07-06 14:43:00,
2015-07-06 10:58:00,84.7,76.0,30.16,ESE,109,0.0,4.0,76,0.00,,,0.00,388,weatherlink.com 1.10,2015-07-06 14:58:00,
2015-07-06 11:13:00,85.4,77.0,30.16,ESE,102,2.0,6.0,75,0.00,,,0.00,406,weatherlink.com 1.10,2015-07-06 15:13:00,
2015-07-06 11:28:00,86.0,77.0,30.16,ESE,103,2.0,3.0,74,0.00,,,0.00,320,weatherlink.com 1.10,2015-07-06 15:28:00,
2015-07-06 11:58:00,85.8,77.0,30.17,East,101,2.0,4.0,75,0.00,,,0.00,322,weatherlink.com 1.10,2015-07-06 15:58:00,
2015-07-06 12:13:00,86.3,77.0,30.17,East,100,0.0,7.0,74,0.00,,,0.00,376,weatherlink.com 1.10,2015-07-06 16:13:00,
2015-07-06 12:28:00,86.3,77.0,30.17,ESE,102,3.0,7.0,73,0.00,,,0.00,385,weatherlink.com 1.10,2015-07-06 16:28:00,
2015-07-06 12:43:00,86.2,77.0,30.17,East,96,3.0,7.0,74,0.00,,,0.00,339,weatherlink.com 1.10,2015-07-06 16:43:00,
2015-07-06 12:58:00,86.2,77.0,30.17,East,90,3.0,8.0,73,0.00,,,0.00,406,weatherlink.com 1.10,2015-07-06 16:58:00,
2015-07-06 13:13:00,86.4,77.0,30.17,East,96,2.0,7.0,73,0.00,,,0.00,469,weatherlink.com 1.10,2015-07-06 17:13:00,
2015-07-06 13:28:00,86.8,77.0,30.16,ESE,102,2.0,7.0,72,0.00,,,0.00,622,weatherlink.com 1.10,2015-07-06 17:28:00,
2015-07-06 13:43:00,88.2,77.0,30.15,ESE,109,8.0,8.0,70,0.00,,,0.00,1120,weatherlink.com 1.10,2015-07-06 17:43:00,
2015-07-06 13:58:00,88.6,78.0,30.15,ESE,103,0.0,8.0,71,0.00,,,0.00,1034,weatherlink.com 1.10,2015-07-06 17:58:00,
2015-07-06 14:13:00,88.6,78.0,30.14,ESE,123,2.0,7.0,70,0.00,,,0.00,963,weatherlink.com 1.10,2015-07-06 18:13:00,
2015-07-06 14:29:00,89.1,78.0,30.14,East,101,2.0,7.0,69,0.00,,,0.00,898,weatherlink.com 1.10,2015-07-06 18:29:00,
2015-07-06 14:44:00,89.7,77.0,30.14,SSE,159,1.0,8.0,66,0.00,,,0.00,932,weatherlink.com 1.10,2015-07-06 18:44:00,
2015-07-06 14:58:00,89.5,77.0,30.13,East,90,2.0,6.0,66,0.00,,,0.00,879,weatherlink.com 1.10,2015-07-06 18:58:00,
2015-07-06 15:14:00,89.6,77.0,30.13,East,79,1.0,8.0,67,0.00,,,0.00,564,weatherlink.com 1.10,2015-07-06 19:14:00,
2015-07-06 15:28:00,88.0,78.0,30.13,East,98,4.0,7.0,71,0.00,,,0.00,357,weatherlink.com 1.10,2015-07-06 19:28:00,
2015-07-06 15:43:00,87.9,77.0,30.12,East,94,3.0,8.0,70,0.00,,,0.00,432,weatherlink.com 1.10,2015-07-06 19:43:00,
2015-07-06 15:58:00,87.9,77.0,30.11,ESE,108,2.0,8.0,70,0.00,,,0.00,670,weatherlink.com 1.10,2015-07-06 19:58:00,
2015-07-06 16:13:00,87.6,77.0,30.10,East,101,7.0,8.0,71,0.00,,,0.00,563,weatherlink.com 1.10,2015-07-06 20:13:00,
2015-07-06 16:28:00,87.6,78.0,30.11,SSE,147,3.0,7.0,72,0.00,,,0.00,202,weatherlink.com 1.10,2015-07-06 20:28:00,
2015-07-06 16:43:00,87.3,77.0,30.11,SE,131,3.0,8.0,72,0.00,,,0.00,172,weatherlink.com 1.10,2015-07-06 20:43:00,
2015-07-06 16:58:00,86.4,77.0,30.11,SSW,205,2.0,10.0,74,0.00,,,0.00,132,weatherlink.com 1.10,2015-07-06 20:58:00,
2015-07-06 17:14:00,86.3,77.0,30.12,SSE,158,3.0,3.0,73,0.00,,,0.00,116,weatherlink.com 1.10,2015-07-06 21:14:00,
2015-07-06 17:43:00,86.1,77.0,30.12,ESE,123,2.0,4.0,74,0.00,,,0.00,195,weatherlink.com 1.10,2015-07-06 21:43:00,
2015-07-06 17:58:00,86.4,77.0,30.12,East,92,3.0,6.0,74,0.00,,,0.00,146,weatherlink.com 1.10,2015-07-06 21:58:00,
2015-07-06 18:13:00,86.2,76.0,30.11,South,182,2.0,6.0,71,0.00,,,0.00,86,weatherlink.com 1.10,2015-07-06 22:13:00,